Yuma, AZ

6:15 PM MST on April 19, 2015 (GMT -0700)
Caballero Park | | Change Station
CLOSE
Current Station
Personal Weather Station
Location: Yuma, AZ
Elevation: 200 ft
Nearby Weather Stations

Elev 200 ft 32.67 °N, 114.63 °W | Updated 13 minutes ago

Clear
Clear
93.7 °F
Feels Like 90 °F
N
4.3
Wind Variable Wind from West

Today
High -- | Low -- °F
--% Chance of Precip.
Yesterday
High -- | Low -- °F
Precip. -- in
6:04 AM 7:11 PM
New Moon, 2% visible
Pressure 29.73 in
Visibility 10.0 miles
Clouds Clear
Heat Index 90 °F
Dew Point 42 °F
Humidity 17%
Rainfall 0.00 in
Snow Depth Not available.
UV 1 out of 12
Pollen 11.30 out of 12
Air Quality Not available.
Flu Activity Local Activity
METAR KNYL 200057Z AUTO VRB04KT 10SM CLR 33/M01 A2974 RMK AO2 SLP067 T03281011 $

More Conditions Fewer Conditions

Pressure 29.73 in
Visibility 10.0 miles
Clouds Clear
Heat Index 90 °F
Dew Point 42 °F
Humidity 17%
Rainfall 0.00 in
Snow Depth Not available.
UV 1 out of 12
Pollen 11.30 out of 12
Air Quality Not available.
Flu Activity Local Activity
METAR KNYL 200057Z AUTO VRB04KT 10SM CLR 33/M01 A2974 RMK AO2 SLP067 T03281011 $

More Conditions Fewer Conditions

10-Day Weather Forecast

Almanac

Astronomy

Apr. 19, 2015 Rise Set
Actual Time
Civil Twilight
Nautical Twilight
Astronomical Twilight
Moon
Length of Visible Light
Length of Day
Tomorrow will be .
, % of the Moon is Illuminated

Today's Extremes

State Highs State Lows

Community

WunderPhotos

Upload Photos

1,815,080 photos uploaded!

WunderBlogs® & News

Nearby

Air Quality

  Air Quality AQ Index Pollutant
Not available.

Snow Depth

Station Depth Elevation

Earthquake Activity

City Distance Mag. Time & Date
Minimum magnitude displayed is 2.5.

Coastal Water Temperatures

Place Temperature

Stations

Nearby Weather Stations

Station Location Temp. Windchill Dew Point Humidity Wind Precip. Elev Updated Type